sensor_id;sensor_type;location;lat;lon;timestamp;P1;durP1;ratioP1;P2;durP2;ratioP2
41077;SDS011;26823;42.662;23.352;2023-08-08T00:02:17;3.53;;;3.22;;
41077;SDS011;26823;42.662;23.352;2023-08-08T00:04:43;4.72;;;4.30;;
41077;SDS011;26823;42.662;23.352;2023-08-08T00:07:08;5.00;;;3.80;;
41077;SDS011;26823;42.662;23.352;2023-08-08T00:09:34;3.50;;;3.20;;
41077;SDS011;26823;42.662;23.352;2023-08-08T00:11:59;4.55;;;4.13;;
41077;SDS011;26823;42.662;23.352;2023-08-08T00:14:24;4.80;;;4.40;;
41077;SDS011;26823;42.662;23.352;2023-08-08T00:16:50;3.75;;;3.35;;
41077;SDS011;26823;42.662;23.352;2023-08-08T00:19:15;2.63;;;2.00;;
41077;SDS011;26823;42.662;23.352;2023-08-08T00:21:41;1.98;;;1.65;;
41077;SDS011;26823;42.662;23.352;2023-08-08T00:24:06;1.63;;;1.35;;
41077;SDS011;26823;42.662;23.352;2023-08-08T00:26:31;1.98;;;1.20;;
41077;SDS011;26823;42.662;23.352;2023-08-08T00:28:57;4.95;;;1.10;;
41077;SDS011;26823;42.662;23.352;2023-08-08T00:31:22;0.95;;;0.90;;
41077;SDS011;26823;42.662;23.352;2023-08-08T00:33:47;0.95;;;0.80;;
41077;SDS011;26823;42.662;23.352;2023-08-08T00:36:13;1.23;;;0.80;;
41077;SDS011;26823;42.662;23.352;2023-08-08T00:38:38;0.80;;;0.80;;
41077;SDS011;26823;42.662;23.352;2023-08-08T00:41:04;0.88;;;0.88;;
41077;SDS011;26823;42.662;23.352;2023-08-08T00:43:29;0.85;;;0.85;;
41077;SDS011;26823;42.662;23.352;2023-08-08T00:45:55;0.88;;;0.82;;
41077;SDS011;26823;42.662;23.352;2023-08-08T00:48:22;0.70;;;0.70;;
41077;SDS011;26823;42.662;23.352;2023-08-08T00:50:48;1.00;;;0.90;;
41077;SDS011;26823;42.662;23.352;2023-08-08T00:53:15;0.80;;;0.80;;
41077;SDS011;26823;42.662;23.352;2023-08-08T00:55:40;0.98;;;0.95;;
41077;SDS011;26823;42.662;23.352;2023-08-08T00:58:06;1.33;;;0.80;;
41077;SDS011;26823;42.662;23.352;2023-08-08T01:00:31;0.85;;;0.80;;
41077;SDS011;26823;42.662;23.352;2023-08-08T01:02:56;1.30;;;1.20;;
41077;SDS011;26823;42.662;23.352;2023-08-08T01:05:22;1.33;;;1.20;;
41077;SDS011;26823;42.662;23.352;2023-08-08T01:07:54;0.85;;;0.85;;
41077;SDS011;26823;42.662;23.352;2023-08-08T01:10:29;1.00;;;1.00;;
41077;SDS011;26823;42.662;23.352;2023-08-08T01:13:05;0.93;;;0.90;;
41077;SDS011;26823;42.662;23.352;2023-08-08T01:15:34;0.73;;;0.73;;
41077;SDS011;26823;42.662;23.352;2023-08-08T01:18:04;1.52;;;1.20;;
41077;SDS011;26823;42.662;23.352;2023-08-08T01:20:31;0.77;;;0.77;;
41077;SDS011;26823;42.662;23.352;2023-08-08T01:25:39;2.70;;;1.00;;
41077;SDS011;26823;42.662;23.352;2023-08-08T01:28:05;1.20;;;1.15;;
41077;SDS011;26823;42.662;23.352;2023-08-08T01:30:32;0.70;;;0.70;;
41077;SDS011;26823;42.662;23.352;2023-08-08T01:32:57;2.58;;;0.98;;
41077;SDS011;26823;42.662;23.352;2023-08-08T01:35:23;1.23;;;1.10;;
41077;SDS011;26823;42.662;23.352;2023-08-08T01:37:54;0.90;;;0.90;;
41077;SDS011;26823;42.662;23.352;2023-08-08T01:40:42;1.08;;;0.85;;
41077;SDS011;26823;42.662;23.352;2023-08-08T01:43:09;0.90;;;0.90;;
41077;SDS011;26823;42.662;23.352;2023-08-08T01:45:35;1.30;;;1.30;;
41077;SDS011;26823;42.662;23.352;2023-08-08T01:48:08;0.82;;;0.82;;
41077;SDS011;26823;42.662;23.352;2023-08-08T01:50:35;1.42;;;0.85;;
41077;SDS011;26823;42.662;23.352;2023-08-08T01:53:02;2.70;;;1.00;;
41077;SDS011;26823;42.662;23.352;2023-08-08T01:55:28;1.10;;;1.10;;
41077;SDS011;26823;42.662;23.352;2023-08-08T01:57:53;1.30;;;0.80;;
41077;SDS011;26823;42.662;23.352;2023-08-08T02:00:18;0.85;;;0.85;;
41077;SDS011;26823;42.662;23.352;2023-08-08T02:02:44;1.00;;;0.88;;
41077;SDS011;26823;42.662;23.352;2023-08-08T02:05:09;1.00;;;0.90;;
41077;SDS011;26823;42.662;23.352;2023-08-08T02:07:35;1.10;;;1.00;;
41077;SDS011;26823;42.662;23.352;2023-08-08T02:10:00;1.08;;;1.02;;
41077;SDS011;26823;42.662;23.352;2023-08-08T02:12:26;2.20;;;1.20;;
41077;SDS011;26823;42.662;23.352;2023-08-08T02:14:53;1.10;;;1.00;;
41077;SDS011;26823;42.662;23.352;2023-08-08T02:17:19;1.17;;;1.08;;
41077;SDS011;26823;42.662;23.352;2023-08-08T02:19:45;1.10;;;1.00;;
41077;SDS011;26823;42.662;23.352;2023-08-08T02:22:11;0.88;;;0.88;;
41077;SDS011;26823;42.662;23.352;2023-08-08T02:24:43;1.88;;;1.20;;
41077;SDS011;26823;42.662;23.352;2023-08-08T02:27:08;1.48;;;0.98;;
41077;SDS011;26823;42.662;23.352;2023-08-08T02:29:34;1.30;;;1.20;;
41077;SDS011;26823;42.662;23.352;2023-08-08T02:31:59;1.08;;;0.98;;
41077;SDS011;26823;42.662;23.352;2023-08-08T02:34:25;1.38;;;1.27;;
41077;SDS011;26823;42.662;23.352;2023-08-08T02:36:50;2.20;;;1.10;;
41077;SDS011;26823;42.662;23.352;2023-08-08T02:39:16;3.08;;;1.30;;
41077;SDS011;26823;42.662;23.352;2023-08-08T02:41:41;1.20;;;1.10;;
41077;SDS011;26823;42.662;23.352;2023-08-08T02:44:07;1.35;;;1.20;;
41077;SDS011;26823;42.662;23.352;2023-08-08T02:46:33;2.60;;;1.17;;
41077;SDS011;26823;42.662;23.352;2023-08-08T02:48:58;2.05;;;1.42;;
41077;SDS011;26823;42.662;23.352;2023-08-08T02:51:24;0.93;;;0.93;;
41077;SDS011;26823;42.662;23.352;2023-08-08T02:53:49;1.85;;;1.35;;
41077;SDS011;26823;42.662;23.352;2023-08-08T02:56:14;1.55;;;1.45;;
41077;SDS011;26823;42.662;23.352;2023-08-08T02:58:40;1.52;;;1.42;;
41077;SDS011;26823;42.662;23.352;2023-08-08T03:01:05;1.40;;;1.30;;
41077;SDS011;26823;42.662;23.352;2023-08-08T03:03:30;1.50;;;1.40;;
41077;SDS011;26823;42.662;23.352;2023-08-08T03:05:56;1.40;;;1.30;;
41077;SDS011;26823;42.662;23.352;2023-08-08T03:08:21;4.72;;;1.70;;
41077;SDS011;26823;42.662;23.352;2023-08-08T03:10:46;2.08;;;1.60;;
41077;SDS011;26823;42.662;23.352;2023-08-08T03:13:12;2.22;;;1.38;;
41077;SDS011;26823;42.662;23.352;2023-08-08T03:15:37;1.20;;;1.20;;
41077;SDS011;26823;42.662;23.352;2023-08-08T03:18:03;1.40;;;1.30;;
41077;SDS011;26823;42.662;23.352;2023-08-08T03:20:28;1.55;;;1.45;;
41077;SDS011;26823;42.662;23.352;2023-08-08T03:22:54;2.35;;;2.00;;
41077;SDS011;26823;42.662;23.352;2023-08-08T03:25:19;1.60;;;1.50;;
41077;SDS011;26823;42.662;23.352;2023-08-08T03:27:45;1.83;;;1.73;;
41077;SDS011;26823;42.662;23.352;2023-08-08T03:30:10;2.03;;;1.67;;
41077;SDS011;26823;42.662;23.352;2023-08-08T03:32:36;5.72;;;1.60;;
41077;SDS011;26823;42.662;23.352;2023-08-08T03:35:01;1.73;;;1.35;;
41077;SDS011;26823;42.662;23.352;2023-08-08T03:37:28;1.90;;;1.80;;
41077;SDS011;26823;42.662;23.352;2023-08-08T03:39:53;1.80;;;1.70;;
41077;SDS011;26823;42.662;23.352;2023-08-08T03:42:19;1.75;;;1.65;;
41077;SDS011;26823;42.662;23.352;2023-08-08T03:44:44;1.50;;;1.40;;
41077;SDS011;26823;42.662;23.352;2023-08-08T03:47:10;1.63;;;1.52;;
41077;SDS011;26823;42.662;23.352;2023-08-08T03:49:35;3.10;;;2.00;;
41077;SDS011;26823;42.662;23.352;2023-08-08T03:52:01;3.63;;;2.20;;
41077;SDS011;26823;42.662;23.352;2023-08-08T03:54:26;1.95;;;1.85;;
41077;SDS011;26823;42.662;23.352;2023-08-08T03:56:51;2.00;;;1.80;;
41077;SDS011;26823;42.662;23.352;2023-08-08T03:59:17;1.90;;;1.70;;
41077;SDS011;26823;42.662;23.352;2023-08-08T04:01:42;2.65;;;2.15;;
41077;SDS011;26823;42.662;23.352;2023-08-08T04:04:07;4.55;;;3.17;;
41077;SDS011;26823;42.662;23.352;2023-08-08T04:06:33;9.15;;;6.40;;
41077;SDS011;26823;42.662;23.352;2023-08-08T04:08:58;8.75;;;6.72;;
41077;SDS011;26823;42.662;23.352;2023-08-08T04:11:25;6.65;;;4.93;;
41077;SDS011;26823;42.662;23.352;2023-08-08T04:13:51;7.13;;;4.93;;
41077;SDS011;26823;42.662;23.352;2023-08-08T04:16:16;4.60;;;4.05;;
41077;SDS011;26823;42.662;23.352;2023-08-08T04:18:42;5.72;;;3.47;;
41077;SDS011;26823;42.662;23.352;2023-08-08T04:21:07;6.53;;;4.57;;
41077;SDS011;26823;42.662;23.352;2023-08-08T04:23:33;7.40;;;5.03;;
41077;SDS011;26823;42.662;23.352;2023-08-08T04:25:58;5.75;;;3.33;;
41077;SDS011;26823;42.662;23.352;2023-08-08T04:28:23;4.20;;;3.50;;
41077;SDS011;26823;42.662;23.352;2023-08-08T04:30:49;5.38;;;4.53;;
41077;SDS011;26823;42.662;23.352;2023-08-08T04:33:14;5.13;;;4.63;;
41077;SDS011;26823;42.662;23.352;2023-08-08T04:35:40;5.63;;;4.90;;
41077;SDS011;26823;42.662;23.352;2023-08-08T04:38:05;8.07;;;6.00;;
41077;SDS011;26823;42.662;23.352;2023-08-08T04:40:31;8.88;;;6.50;;
41077;SDS011;26823;42.662;23.352;2023-08-08T04:42:56;7.05;;;5.60;;
41077;SDS011;26823;42.662;23.352;2023-08-08T04:45:21;6.10;;;4.85;;
41077;SDS011;26823;42.662;23.352;2023-08-08T04:47:47;9.65;;;5.50;;
41077;SDS011;26823;42.662;23.352;2023-08-08T04:50:13;9.68;;;5.70;;
41077;SDS011;26823;42.662;23.352;2023-08-08T04:52:38;7.80;;;5.35;;
41077;SDS011;26823;42.662;23.352;2023-08-08T04:55:04;5.55;;;4.50;;
41077;SDS011;26823;42.662;23.352;2023-08-08T04:57:30;5.07;;;4.13;;
41077;SDS011;26823;42.662;23.352;2023-08-08T04:59:56;5.63;;;3.88;;
41077;SDS011;26823;42.662;23.352;2023-08-08T05:02:22;5.25;;;3.85;;
41077;SDS011;26823;42.662;23.352;2023-08-08T05:04:47;5.45;;;4.05;;
41077;SDS011;26823;42.662;23.352;2023-08-08T05:07:12;5.75;;;4.53;;
41077;SDS011;26823;42.662;23.352;2023-08-08T05:09:38;4.25;;;3.80;;
41077;SDS011;26823;42.662;23.352;2023-08-08T05:12:03;4.97;;;3.78;;
41077;SDS011;26823;42.662;23.352;2023-08-08T05:14:29;4.10;;;3.70;;
41077;SDS011;26823;42.662;23.352;2023-08-08T05:16:55;3.67;;;3.38;;
41077;SDS011;26823;42.662;23.352;2023-08-08T05:19:20;5.22;;;3.60;;
41077;SDS011;26823;42.662;23.352;2023-08-08T05:21:45;5.50;;;4.53;;
41077;SDS011;26823;42.662;23.352;2023-08-08T05:24:11;4.45;;;4.03;;
41077;SDS011;26823;42.662;23.352;2023-08-08T05:26:36;4.95;;;2.70;;
41077;SDS011;26823;42.662;23.352;2023-08-08T05:29:01;3.45;;;2.58;;
41077;SDS011;26823;42.662;23.352;2023-08-08T05:31:27;3.20;;;2.88;;
41077;SDS011;26823;42.662;23.352;2023-08-08T05:33:52;2.95;;;2.65;;
41077;SDS011;26823;42.662;23.352;2023-08-08T05:36:18;4.50;;;2.60;;
41077;SDS011;26823;42.662;23.352;2023-08-08T05:38:43;3.95;;;2.70;;
41077;SDS011;26823;42.662;23.352;2023-08-08T05:41:08;3.65;;;3.03;;
41077;SDS011;26823;42.662;23.352;2023-08-08T05:43:34;2.67;;;2.47;;
41077;SDS011;26823;42.662;23.352;2023-08-08T05:46:00;4.18;;;2.22;;
41077;SDS011;26823;42.662;23.352;2023-08-08T05:48:25;3.30;;;2.83;;
41077;SDS011;26823;42.662;23.352;2023-08-08T05:50:51;4.22;;;2.35;;
41077;SDS011;26823;42.662;23.352;2023-08-08T05:53:16;2.72;;;2.53;;
41077;SDS011;26823;42.662;23.352;2023-08-08T05:55:42;6.80;;;3.40;;
41077;SDS011;26823;42.662;23.352;2023-08-08T05:58:08;5.25;;;2.88;;
41077;SDS011;26823;42.662;23.352;2023-08-08T06:00:33;2.78;;;2.50;;
41077;SDS011;26823;42.662;23.352;2023-08-08T06:02:59;2.65;;;2.45;;
41077;SDS011;26823;42.662;23.352;2023-08-08T06:05:25;4.63;;;2.30;;
41077;SDS011;26823;42.662;23.352;2023-08-08T06:07:51;2.33;;;2.13;;
41077;SDS011;26823;42.662;23.352;2023-08-08T06:10:16;3.05;;;2.80;;
41077;SDS011;26823;42.662;23.352;2023-08-08T06:12:42;2.92;;;2.45;;
41077;SDS011;26823;42.662;23.352;2023-08-08T06:15:07;2.90;;;2.60;;
41077;SDS011;26823;42.662;23.352;2023-08-08T06:17:33;3.85;;;2.70;;
41077;SDS011;26823;42.662;23.352;2023-08-08T06:19:59;4.53;;;2.90;;
41077;SDS011;26823;42.662;23.352;2023-08-08T06:22:24;3.63;;;2.92;;
41077;SDS011;26823;42.662;23.352;2023-08-08T06:24:56;2.75;;;2.55;;
41077;SDS011;26823;42.662;23.352;2023-08-08T06:27:21;6.13;;;4.18;;
41077;SDS011;26823;42.662;23.352;2023-08-08T06:29:47;7.72;;;4.13;;
41077;SDS011;26823;42.662;23.352;2023-08-08T06:32:12;6.32;;;4.20;;
41077;SDS011;26823;42.662;23.352;2023-08-08T06:34:37;4.53;;;3.75;;
41077;SDS011;26823;42.662;23.352;2023-08-08T06:37:03;8.48;;;4.97;;
41077;SDS011;26823;42.662;23.352;2023-08-08T06:39:28;5.05;;;3.90;;
41077;SDS011;26823;42.662;23.352;2023-08-08T06:41:54;6.72;;;4.40;;
41077;SDS011;26823;42.662;23.352;2023-08-08T06:44:21;5.25;;;4.47;;
41077;SDS011;26823;42.662;23.352;2023-08-08T06:46:46;3.85;;;2.72;;
41077;SDS011;26823;42.662;23.352;2023-08-08T06:49:11;3.05;;;2.75;;
41077;SDS011;26823;42.662;23.352;2023-08-08T06:51:37;4.00;;;3.15;;
41077;SDS011;26823;42.662;23.352;2023-08-08T06:54:02;2.60;;;2.40;;
41077;SDS011;26823;42.662;23.352;2023-08-08T06:56:28;4.95;;;2.35;;
41077;SDS011;26823;42.662;23.352;2023-08-08T06:58:54;2.22;;;1.92;;
41077;SDS011;26823;42.662;23.352;2023-08-08T07:01:19;1.70;;;1.60;;
41077;SDS011;26823;42.662;23.352;2023-08-08T07:03:45;2.42;;;1.55;;
41077;SDS011;26823;42.662;23.352;2023-08-08T07:06:11;1.70;;;1.60;;
41077;SDS011;26823;42.662;23.352;2023-08-08T07:08:37;1.48;;;1.40;;
41077;SDS011;26823;42.662;23.352;2023-08-08T07:11:04;1.85;;;1.75;;
41077;SDS011;26823;42.662;23.352;2023-08-08T07:13:31;1.85;;;1.75;;
41077;SDS011;26823;42.662;23.352;2023-08-08T07:15:56;4.75;;;1.80;;
41077;SDS011;26823;42.662;23.352;2023-08-08T07:18:21;2.20;;;1.67;;
41077;SDS011;26823;42.662;23.352;2023-08-08T07:20:47;2.22;;;1.83;;
41077;SDS011;26823;42.662;23.352;2023-08-08T07:23:12;3.83;;;2.00;;
41077;SDS011;26823;42.662;23.352;2023-08-08T07:25:38;3.30;;;1.80;;
41077;SDS011;26823;42.662;23.352;2023-08-08T07:28:03;3.65;;;1.80;;
41077;SDS011;26823;42.662;23.352;2023-08-08T07:30:29;4.03;;;1.70;;
41077;SDS011;26823;42.662;23.352;2023-08-08T07:32:54;2.50;;;1.52;;
41077;SDS011;26823;42.662;23.352;2023-08-08T07:35:19;4.47;;;1.48;;
41077;SDS011;26823;42.662;23.352;2023-08-08T07:37:45;10.57;;;1.70;;
41077;SDS011;26823;42.662;23.352;2023-08-08T07:40:19;10.90;;;2.20;;
41077;SDS011;26823;42.662;23.352;2023-08-08T07:42:48;4.70;;;1.80;;
41077;SDS011;26823;42.662;23.352;2023-08-08T07:45:14;3.63;;;2.22;;
41077;SDS011;26823;42.662;23.352;2023-08-08T07:47:41;1.75;;;1.65;;
41077;SDS011;26823;42.662;23.352;2023-08-08T07:50:07;1.40;;;1.30;;
41077;SDS011;26823;42.662;23.352;2023-08-08T07:52:34;1.50;;;1.40;;
41077;SDS011;26823;42.662;23.352;2023-08-08T07:54:59;1.08;;;1.08;;
41077;SDS011;26823;42.662;23.352;2023-08-08T07:57:26;4.13;;;1.60;;
41077;SDS011;26823;42.662;23.352;2023-08-08T07:59:52;1.38;;;1.27;;
41077;SDS011;26823;42.662;23.352;2023-08-08T08:02:17;1.88;;;1.42;;
41077;SDS011;26823;42.662;23.352;2023-08-08T08:04:42;7.57;;;1.30;;
41077;SDS011;26823;42.662;23.352;2023-08-08T08:07:08;2.45;;;1.10;;
41077;SDS011;26823;42.662;23.352;2023-08-08T08:09:33;1.90;;;1.30;;
41077;SDS011;26823;42.662;23.352;2023-08-08T08:11:59;2.13;;;1.50;;
41077;SDS011;26823;42.662;23.352;2023-08-08T08:14:30;1.30;;;1.30;;
41077;SDS011;26823;42.662;23.352;2023-08-08T08:17:02;3.13;;;1.60;;
41077;SDS011;26823;42.662;23.352;2023-08-08T08:19:28;5.78;;;1.48;;
41077;SDS011;26823;42.662;23.352;2023-08-08T08:21:54;2.28;;;1.38;;
41077;SDS011;26823;42.662;23.352;2023-08-08T08:24:19;6.93;;;1.10;;
41077;SDS011;26823;42.662;23.352;2023-08-08T08:26:45;1.58;;;0.93;;
41077;SDS011;26823;42.662;23.352;2023-08-08T08:29:10;1.52;;;1.10;;
41077;SDS011;26823;42.662;23.352;2023-08-08T08:31:36;1.92;;;1.50;;
41077;SDS011;26823;42.662;23.352;2023-08-08T08:34:02;1.40;;;1.23;;
41077;SDS011;26823;42.662;23.352;2023-08-08T08:36:28;2.03;;;1.80;;
41077;SDS011;26823;42.662;23.352;2023-08-08T08:38:53;2.65;;;1.45;;
41077;SDS011;26823;42.662;23.352;2023-08-08T08:41:19;2.80;;;2.00;;
41077;SDS011;26823;42.662;23.352;2023-08-08T08:43:50;1.60;;;1.30;;
41077;SDS011;26823;42.662;23.352;2023-08-08T08:46:15;3.47;;;1.33;;
41077;SDS011;26823;42.662;23.352;2023-08-08T08:48:45;6.55;;;1.25;;
41077;SDS011;26823;42.662;23.352;2023-08-08T08:51:12;5.40;;;1.30;;
41077;SDS011;26823;42.662;23.352;2023-08-08T08:53:37;3.22;;;2.92;;
41077;SDS011;26823;42.662;23.352;2023-08-08T08:56:04;4.28;;;3.20;;
41077;SDS011;26823;42.662;23.352;2023-08-08T08:58:30;3.90;;;2.05;;
41077;SDS011;26823;42.662;23.352;2023-08-08T09:00:56;2.30;;;2.10;;
41077;SDS011;26823;42.662;23.352;2023-08-08T09:03:23;2.38;;;2.17;;
41077;SDS011;26823;42.662;23.352;2023-08-08T09:05:49;2.65;;;2.42;;
41077;SDS011;26823;42.662;23.352;2023-08-08T09:08:16;3.10;;;2.10;;
41077;SDS011;26823;42.662;23.352;2023-08-08T09:10:41;2.28;;;1.77;;
41077;SDS011;26823;42.662;23.352;2023-08-08T09:13:07;2.45;;;2.17;;
41077;SDS011;26823;42.662;23.352;2023-08-08T09:15:32;2.03;;;1.80;;
41077;SDS011;26823;42.662;23.352;2023-08-08T09:17:59;2.95;;;1.60;;
41077;SDS011;26823;42.662;23.352;2023-08-08T09:20:26;1.85;;;1.58;;
41077;SDS011;26823;42.662;23.352;2023-08-08T09:22:55;3.22;;;2.90;;
41077;SDS011;26823;42.662;23.352;2023-08-08T09:25:20;1.95;;;1.70;;
41077;SDS011;26823;42.662;23.352;2023-08-08T09:27:46;3.22;;;2.28;;
41077;SDS011;26823;42.662;23.352;2023-08-08T09:30:12;3.03;;;2.72;;
41077;SDS011;26823;42.662;23.352;2023-08-08T09:32:38;1.60;;;1.50;;
41077;SDS011;26823;42.662;23.352;2023-08-08T09:35:04;2.70;;;2.15;;
41077;SDS011;26823;42.662;23.352;2023-08-08T09:37:34;1.45;;;1.35;;
41077;SDS011;26823;42.662;23.352;2023-08-08T09:40:01;3.08;;;1.80;;
41077;SDS011;26823;42.662;23.352;2023-08-08T09:42:32;2.65;;;1.58;;
41077;SDS011;26823;42.662;23.352;2023-08-08T09:44:59;1.88;;;1.65;;
41077;SDS011;26823;42.662;23.352;2023-08-08T09:47:25;1.77;;;1.60;;
41077;SDS011;26823;42.662;23.352;2023-08-08T09:49:56;4.78;;;2.25;;
41077;SDS011;26823;42.662;23.352;2023-08-08T09:52:24;1.60;;;1.50;;
41077;SDS011;26823;42.662;23.352;2023-08-08T09:54:52;2.33;;;1.20;;
41077;SDS011;26823;42.662;23.352;2023-08-08T09:57:18;1.77;;;1.52;;
41077;SDS011;26823;42.662;23.352;2023-08-08T09:59:44;2.00;;;1.90;;
41077;SDS011;26823;42.662;23.352;2023-08-08T10:02:13;1.70;;;1.60;;
41077;SDS011;26823;42.662;23.352;2023-08-08T10:04:40;4.03;;;2.25;;
41077;SDS011;26823;42.662;23.352;2023-08-08T10:07:06;1.80;;;1.60;;
41077;SDS011;26823;42.662;23.352;2023-08-08T10:09:32;2.08;;;1.42;;
41077;SDS011;26823;42.662;23.352;2023-08-08T10:11:58;2.40;;;1.58;;
41077;SDS011;26823;42.662;23.352;2023-08-08T10:14:31;2.72;;;1.42;;
41077;SDS011;26823;42.662;23.352;2023-08-08T10:16:57;3.58;;;1.90;;
41077;SDS011;26823;42.662;23.352;2023-08-08T10:19:23;1.33;;;1.30;;
41077;SDS011;26823;42.662;23.352;2023-08-08T10:21:50;2.08;;;1.83;;
41077;SDS011;26823;42.662;23.352;2023-08-08T10:24:22;2.85;;;1.75;;
41077;SDS011;26823;42.662;23.352;2023-08-08T10:26:50;1.80;;;1.70;;
41077;SDS011;26823;42.662;23.352;2023-08-08T10:29:17;1.63;;;1.52;;
41077;SDS011;26823;42.662;23.352;2023-08-08T10:31:50;1.70;;;1.60;;
41077;SDS011;26823;42.662;23.352;2023-08-08T10:34:19;2.58;;;1.92;;
41077;SDS011;26823;42.662;23.352;2023-08-08T10:36:49;4.22;;;2.03;;
41077;SDS011;26823;42.662;23.352;2023-08-08T10:39:16;6.13;;;2.47;;
41077;SDS011;26823;42.662;23.352;2023-08-08T10:41:46;4.20;;;2.25;;
41077;SDS011;26823;42.662;23.352;2023-08-08T10:44:25;2.15;;;2.03;;
41077;SDS011;26823;42.662;23.352;2023-08-08T10:46:53;1.90;;;1.80;;
41077;SDS011;26823;42.662;23.352;2023-08-08T10:49:19;5.90;;;1.85;;
41077;SDS011;26823;42.662;23.352;2023-08-08T10:51:46;1.83;;;1.73;;
41077;SDS011;26823;42.662;23.352;2023-08-08T10:54:17;1.95;;;1.60;;
41077;SDS011;26823;42.662;23.352;2023-08-08T10:59:22;1.65;;;1.55;;
41077;SDS011;26823;42.662;23.352;2023-08-08T11:01:49;2.38;;;1.40;;
41077;SDS011;26823;42.662;23.352;2023-08-08T11:04:19;2.15;;;1.98;;
41077;SDS011;26823;42.662;23.352;2023-08-08T11:06:46;2.63;;;1.70;;
41077;SDS011;26823;42.662;23.352;2023-08-08T11:09:13;1.67;;;1.58;;
41077;SDS011;26823;42.662;23.352;2023-08-08T11:11:39;1.83;;;1.42;;
41077;SDS011;26823;42.662;23.352;2023-08-08T11:14:10;1.20;;;1.20;;
41077;SDS011;26823;42.662;23.352;2023-08-08T11:16:39;2.45;;;1.20;;
41077;SDS011;26823;42.662;23.352;2023-08-08T11:19:05;1.10;;;1.10;;
41077;SDS011;26823;42.662;23.352;2023-08-08T11:21:34;1.30;;;1.25;;
41077;SDS011;26823;42.662;23.352;2023-08-08T11:24:05;1.40;;;1.30;;
41077;SDS011;26823;42.662;23.352;2023-08-08T11:26:32;4.20;;;2.70;;
41077;SDS011;26823;42.662;23.352;2023-08-08T11:29:01;3.13;;;2.30;;
41077;SDS011;26823;42.662;23.352;2023-08-08T11:31:28;1.92;;;1.63;;
41077;SDS011;26823;42.662;23.352;2023-08-08T11:33:54;3.70;;;1.75;;
41077;SDS011;26823;42.662;23.352;2023-08-08T11:36:23;1.50;;;1.40;;
41077;SDS011;26823;42.662;23.352;2023-08-08T11:38:49;5.43;;;1.50;;
41077;SDS011;26823;42.662;23.352;2023-08-08T11:41:20;1.98;;;1.60;;
41077;SDS011;26823;42.662;23.352;2023-08-08T11:43:47;2.00;;;1.20;;
41077;SDS011;26823;42.662;23.352;2023-08-08T11:46:13;1.33;;;1.23;;
41077;SDS011;26823;42.662;23.352;2023-08-08T11:48:40;2.78;;;1.42;;
41077;SDS011;26823;42.662;23.352;2023-08-08T11:51:06;1.60;;;1.50;;
41077;SDS011;26823;42.662;23.352;2023-08-08T11:53:32;1.38;;;1.27;;
41077;SDS011;26823;42.662;23.352;2023-08-08T11:55:58;3.40;;;1.67;;
41077;SDS011;26823;42.662;23.352;2023-08-08T11:58:25;3.28;;;1.50;;
41077;SDS011;26823;42.662;23.352;2023-08-08T12:00:51;1.50;;;1.40;;
41077;SDS011;26823;42.662;23.352;2023-08-08T12:03:20;1.30;;;1.20;;
41077;SDS011;26823;42.662;23.352;2023-08-08T12:05:46;1.40;;;1.30;;
41077;SDS011;26823;42.662;23.352;2023-08-08T12:08:12;1.58;;;1.48;;
41077;SDS011;26823;42.662;23.352;2023-08-08T12:10:38;0.90;;;0.90;;
41077;SDS011;26823;42.662;23.352;2023-08-08T12:13:04;1.90;;;1.20;;
41077;SDS011;26823;42.662;23.352;2023-08-08T12:15:36;3.92;;;2.25;;
41077;SDS011;26823;42.662;23.352;2023-08-08T12:18:02;1.50;;;1.40;;
41077;SDS011;26823;42.662;23.352;2023-08-08T12:20:28;1.50;;;1.40;;
41077;SDS011;26823;42.662;23.352;2023-08-08T12:22:55;5.03;;;1.50;;
41077;SDS011;26823;42.662;23.352;2023-08-08T12:25:21;3.15;;;1.23;;
41077;SDS011;26823;42.662;23.352;2023-08-08T12:27:47;1.35;;;1.25;;
41077;SDS011;26823;42.662;23.352;2023-08-08T12:30:12;1.48;;;1.23;;
41077;SDS011;26823;42.662;23.352;2023-08-08T12:32:38;1.13;;;1.13;;
41077;SDS011;26823;42.662;23.352;2023-08-08T12:35:03;1.20;;;1.10;;
41077;SDS011;26823;42.662;23.352;2023-08-08T12:37:29;2.50;;;1.40;;
41077;SDS011;26823;42.662;23.352;2023-08-08T12:39:54;1.33;;;1.23;;
41077;SDS011;26823;42.662;23.352;2023-08-08T12:42:20;1.48;;;1.38;;
41077;SDS011;26823;42.662;23.352;2023-08-08T12:44:46;1.40;;;1.30;;
41077;SDS011;26823;42.662;23.352;2023-08-08T12:47:12;9.35;;;1.98;;
41077;SDS011;26823;42.662;23.352;2023-08-08T12:49:37;1.08;;;1.08;;
41077;SDS011;26823;42.662;23.352;2023-08-08T12:52:03;3.45;;;1.23;;
41077;SDS011;26823;42.662;23.352;2023-08-08T12:54:28;1.27;;;1.20;;
41077;SDS011;26823;42.662;23.352;2023-08-08T12:56:54;1.33;;;1.23;;
41077;SDS011;26823;42.662;23.352;2023-08-08T12:59:19;8.80;;;6.75;;
41077;SDS011;26823;42.662;23.352;2023-08-08T13:01:52;1.73;;;1.63;;
41077;SDS011;26823;42.662;23.352;2023-08-08T13:04:17;2.45;;;1.27;;
41077;SDS011;26823;42.662;23.352;2023-08-08T13:06:43;1.50;;;1.20;;
41077;SDS011;26823;42.662;23.352;2023-08-08T13:09:09;2.42;;;1.42;;
41077;SDS011;26823;42.662;23.352;2023-08-08T13:11:34;3.65;;;1.10;;
41077;SDS011;26823;42.662;23.352;2023-08-08T13:14:00;2.40;;;1.30;;
41077;SDS011;26823;42.662;23.352;2023-08-08T13:16:26;2.88;;;1.20;;
41077;SDS011;26823;42.662;23.352;2023-08-08T13:18:51;2.10;;;1.17;;
41077;SDS011;26823;42.662;23.352;2023-08-08T13:21:17;2.13;;;1.00;;
41077;SDS011;26823;42.662;23.352;2023-08-08T13:23:42;2.42;;;1.15;;
41077;SDS011;26823;42.662;23.352;2023-08-08T13:26:07;2.58;;;1.15;;
41077;SDS011;26823;42.662;23.352;2023-08-08T13:28:33;1.58;;;1.48;;
41077;SDS011;26823;42.662;23.352;2023-08-08T13:30:58;2.33;;;1.52;;
41077;SDS011;26823;42.662;23.352;2023-08-08T13:33:24;3.08;;;1.40;;
41077;SDS011;26823;42.662;23.352;2023-08-08T13:35:49;3.20;;;1.80;;
41077;SDS011;26823;42.662;23.352;2023-08-08T13:38:14;1.45;;;1.35;;
41077;SDS011;26823;42.662;23.352;2023-08-08T13:40:41;2.33;;;1.30;;
41077;SDS011;26823;42.662;23.352;2023-08-08T13:43:06;1.30;;;1.20;;
41077;SDS011;26823;42.662;23.352;2023-08-08T13:45:32;1.77;;;1.48;;
41077;SDS011;26823;42.662;23.352;2023-08-08T13:47:57;1.40;;;1.30;;
41077;SDS011;26823;42.662;23.352;2023-08-08T13:50:22;1.67;;;1.58;;
41077;SDS011;26823;42.662;23.352;2023-08-08T13:52:48;1.85;;;1.30;;
41077;SDS011;26823;42.662;23.352;2023-08-08T13:55:13;2.95;;;2.22;;
41077;SDS011;26823;42.662;23.352;2023-08-08T13:57:39;3.03;;;1.42;;
41077;SDS011;26823;42.662;23.352;2023-08-08T14:00:04;1.60;;;1.50;;
41077;SDS011;26823;42.662;23.352;2023-08-08T14:02:31;2.00;;;1.63;;
41077;SDS011;26823;42.662;23.352;2023-08-08T14:04:57;1.77;;;1.67;;
41077;SDS011;26823;42.662;23.352;2023-08-08T14:07:22;2.55;;;2.35;;
41077;SDS011;26823;42.662;23.352;2023-08-08T14:09:48;2.50;;;1.55;;
41077;SDS011;26823;42.662;23.352;2023-08-08T14:12:13;3.03;;;2.45;;
41077;SDS011;26823;42.662;23.352;2023-08-08T14:14:39;3.22;;;2.45;;
41077;SDS011;26823;42.662;23.352;2023-08-08T14:17:04;1.85;;;1.40;;
41077;SDS011;26823;42.662;23.352;2023-08-08T14:19:29;1.50;;;1.40;;
41077;SDS011;26823;42.662;23.352;2023-08-08T14:21:55;1.60;;;1.48;;
41077;SDS011;26823;42.662;23.352;2023-08-08T14:24:20;1.65;;;1.50;;
41077;SDS011;26823;42.662;23.352;2023-08-08T14:26:46;2.38;;;2.17;;
41077;SDS011;26823;42.662;23.352;2023-08-08T14:29:12;2.28;;;2.08;;
41077;SDS011;26823;42.662;23.352;2023-08-08T14:31:37;1.42;;;1.33;;
41077;SDS011;26823;42.662;23.352;2023-08-08T14:34:02;1.80;;;1.67;;